Overview Statistics Trail Chart Weather Telemetry Raw packets
 

This is the latest recevied weather packets stored in our database for station/object KO4YAW. If no packets are shown the sender has not sent any weather packets the latest 10 day(s).

<< 16 17 18 19 20 21 22 >>
Time Temp. Humidity Pressure Rain* Wind** Luminosity Snow
1788285821 25.56° C 39% 1020.6 hPa 0 mm - 773 W/m² -
1788284921 25° C 39% 1021 hPa 0 mm - 69 W/m² -
1788284021 25° C 40% 1021.1 hPa 0 mm - 120 W/m² -
1788283121 23.33° C 43% 1021.2 hPa 0 mm - 474 W/m² -
1788282221 21.67° C 51% 1021.1 hPa 0 mm - 287 W/m² -
1788281321 21.67° C 54% 1021.4 hPa 0 mm - 103 W/m² -
1788280421 21.11° C 55% 1021.4 hPa 0 mm - 132 W/m² -
1788279521 21.11° C 56% 1021.2 hPa 0 mm - 121 W/m² -
1788278621 20.56° C 58% 1021.2 hPa 0 mm - 182 W/m² -
1788277721 20° C 62% 1021.2 hPa 0 mm - 189 W/m² -
1788276821 18.89° C 65% 1021.2 hPa 0 mm - 162 W/m² -
1788275921 18.33° C 68% 1021 hPa 0 mm - 131 W/m² -
1788275021 17.78° C 71% 1021 hPa 0 mm - 99 W/m² -
1788274121 17.78° C 72% 1021 hPa 0 mm - 89 W/m² -
1788273221 17.22° C 74% 1020.9 hPa 0 mm - 60 W/m² -
1788272321 17.22° C 73% 1020.9 hPa 0 mm - 54 W/m² -
1788271421 17.22° C 72% 1020.8 hPa 0 mm - 46 W/m² -
1788270521 17.22° C 72% 1020.8 hPa 0 mm - 39 W/m² -
1788269621 17.22° C 68% 1020.5 hPa 0 mm - 23 W/m² -
1788268721 16.67° C 71% 1020.3 hPa 0 mm - 16 W/m² -
1788267821 16.11° C 74% 1020.1 hPa 0 mm - 10 W/m² -
1788266921 16.11° C 75% 1019.9 hPa 0 mm - 4 W/m² -
1788266021 16.11° C 75% 1019.8 hPa 0 mm - 1 W/m² -
1788265121 16.11° C 76% 1019.7 hPa 0 mm - 0 W/m² -
1788264221 16.11° C 75% 1020.1 hPa 0 mm - 0 W/m² -

* Rain since midnight (hover to see other rain measurements)
** Current wind speed in m/s (hover to see current wind gust speed)